Time;durP1;ratioP1;P1;durP2;ratioP2;P2;SDS_P1;SDS_P2;PMS_P1;PMS_P2;Temp;Humidity;BMP_temperature;BMP_pressure;BME280_temperature;BME280_humidity;BME280_pressure;Samples;Min_cycle;Max_cycle;Signal;HPM_P1;HPM_P2
2021/07/07 00:00:24;;;;;;;3.20;1.67;;;14.10;99.90;;;12.62;88.75;100910.25;3501186;40;102531;-40
2021/07/07 00:02:52;;;;;;;4.35;2.05;;;14.10;99.90;;;12.64;88.90;100916.34;3510004;40;104484;-40
2021/07/07 00:05:21;;;;;;;3.40;1.65;;;14.10;99.90;;;12.62;89.10;100908.38;3509626;40;102380;-40
2021/07/07 00:07:49;;;;;;;3.20;1.75;;;14.10;99.90;;;12.60;89.13;100920.59;3510544;40;102241;-40
2021/07/07 00:10:21;;;;;;;2.67;1.58;;;14.10;99.90;;;12.61;89.22;100922.28;3510487;40;102622;-40
2021/07/07 00:12:48;;;;;;;3.50;1.60;;;14.00;99.90;;;12.58;89.20;100917.25;3509999;40;103432;-40
2021/07/07 00:15:21;;;;;;;5.53;1.90;;;14.10;99.90;;;12.56;88.86;100920.19;3509923;40;102451;-39
2021/07/07 00:17:49;;;;;;;4.50;1.80;;;14.00;99.90;;;12.55;88.69;100918.53;3510496;40;102350;-40
2021/07/07 00:20:19;;;;;;;2.60;1.50;;;14.00;99.90;;;12.51;88.61;100918.16;3510301;40;102520;-41
2021/07/07 00:22:48;;;;;;;7.65;1.83;;;14.00;99.90;;;12.51;88.73;100911.81;3510201;40;102196;-40
2021/07/07 00:25:16;;;;;;;3.75;1.70;;;14.00;99.90;;;12.43;88.78;100899.25;3510502;40;102486;-40
2021/07/07 00:27:43;;;;;;;6.32;1.90;;;13.90;99.90;;;12.46;88.81;100911.66;3510290;40;103271;-40
2021/07/07 00:30:12;;;;;;;;;;;13.90;99.90;;;12.42;88.76;100908.53;3511006;40;102388;-40
2021/07/07 00:32:39;;;;;;;4.30;1.52;;;13.90;99.90;;;12.43;88.85;100906.66;3510333;40;103094;-40
2021/07/07 00:35:07;;;;;;;4.47;1.73;;;13.90;99.90;;;12.39;88.93;100900.78;3509582;40;102792;-39
2021/07/07 00:37:34;;;;;;;;;;;13.80;99.90;;;12.36;89.24;100899.34;3510882;40;103276;-40
2021/07/07 00:40:04;;;;;;;3.40;1.80;;;13.80;99.90;;;12.37;89.29;100897.41;3510077;40;102553;-40
2021/07/07 00:42:32;;;;;;;3.65;2.22;;;13.80;99.90;;;12.34;89.63;100901.47;3510212;40;102251;-40
2021/07/07 00:45:00;;;;;;;;;;;13.80;99.90;;;12.32;89.45;100900.81;3510736;40;102496;-40
2021/07/07 00:47:27;;;;;;;3.22;1.58;;;13.80;99.90;;;12.29;89.45;100898.53;3510075;40;103367;-40
2021/07/07 00:49:55;;;;;;;4.40;1.73;;;13.80;99.90;;;12.27;89.38;100905.28;3509715;40;102344;-40
2021/07/07 00:52:22;;;;;;;3.22;1.67;;;13.70;99.90;;;12.25;89.49;100902.78;3509591;40;102374;-40
2021/07/07 00:54:50;;;;;;;3.63;1.80;;;13.70;99.90;;;12.26;89.82;100903.63;3510091;40;102604;-40
2021/07/07 00:57:19;;;;;;;3.28;1.83;;;13.70;99.90;;;12.18;89.86;100891.88;3509810;40;103130;-41
2021/07/07 00:59:49;;;;;;;8.13;2.00;;;13.70;99.90;;;12.21;89.71;100896.06;3509686;40;102344;-40
2021/07/07 01:02:19;;;;;;;4.22;2.08;;;13.70;99.90;;;12.18;89.78;100888.31;3509539;40;103109;-40
2021/07/07 01:04:47;;;;;;;3.60;1.88;;;13.70;99.90;;;12.17;89.87;100895.66;3509790;40;102502;-40
2021/07/07 01:07:14;;;;;;;3.97;1.90;;;13.60;99.90;;;12.16;89.67;100896.72;3509678;40;102313;-42
2021/07/07 01:09:42;;;;;;;3.78;1.80;;;13.60;99.90;;;12.15;89.82;100899.69;3510149;40;103341;-40
2021/07/07 01:12:10;;;;;;;3.35;1.98;;;13.60;99.90;;;12.13;90.03;100901.81;3639977;22;104084;-42
2021/07/07 01:14:37;;;;;;;;;;;13.60;99.90;;;12.13;90.10;100899.91;3504564;40;102449;-44
2021/07/07 01:17:05;;;;;;;3.58;1.70;;;13.60;99.90;;;12.12;90.50;100902.88;3491839;40;102466;-41
2021/07/07 01:19:32;;;;;;;8.15;2.15;;;13.60;99.90;;;12.20;91.14;100894.41;3499884;40;102330;-41
2021/07/07 01:22:00;;;;;;;5.15;2.13;;;13.60;99.90;;;12.26;91.11;100898.16;3500352;40;102396;-42
2021/07/07 01:24:27;;;;;;;5.75;2.25;;;13.70;99.90;;;12.26;91.09;100893.50;3500434;40;102079;-41
2021/07/07 01:26:54;;;;;;;3.40;2.03;;;13.70;99.90;;;12.30;91.07;100888.44;3500308;40;103144;-41
2021/07/07 01:29:23;;;;;;;6.78;2.00;;;13.70;99.90;;;12.30;91.15;100886.53;3500039;40;102430;-43
2021/07/07 01:31:50;;;;;;;6.00;2.35;;;13.70;99.90;;;12.31;91.18;100893.66;3500441;40;102123;-42
2021/07/07 01:34:17;;;;;;;5.40;2.05;;;13.70;99.90;;;12.30;91.13;100902.13;3500248;40;103225;-41
2021/07/07 01:36:45;;;;;;;7.43;2.45;;;13.80;99.90;;;12.32;91.30;100889.88;3500369;40;102661;-41
2021/07/07 01:39:13;;;;;;;6.63;2.28;;;13.80;99.90;;;12.32;91.22;100894.53;3500394;40;102287;-42
2021/07/07 01:41:40;;;;;;;6.80;2.25;;;13.70;99.90;;;12.29;90.96;100897.69;3500085;40;103241;-43
2021/07/07 01:44:08;;;;;;;3.95;1.88;;;13.70;99.90;;;12.27;90.86;100897.09;3499912;40;103423;-41
2021/07/07 01:46:35;;;;;;;4.15;2.20;;;13.70;99.90;;;12.22;90.85;100909.53;3500301;40;104251;-42
2021/07/07 01:49:04;;;;;;;6.70;2.10;;;13.70;99.90;;;12.28;91.39;100907.78;3499929;40;102334;-45
2021/07/07 01:51:32;;;;;;;9.73;2.47;;;13.70;99.90;;;12.37;91.62;100905.63;3499648;40;103852;-42
2021/07/07 01:53:59;;;;;;;7.13;2.72;;;13.80;99.90;;;12.39;91.63;100908.16;3499712;40;102381;-41
2021/07/07 01:56:26;;;;;;;6.72;2.65;;;13.80;99.90;;;12.46;92.00;100911.66;3499632;40;102267;-42
2021/07/07 01:58:54;;;;;;;8.80;2.85;;;13.90;99.90;;;12.51;91.86;100907.22;3500347;40;103421;-41
2021/07/07 02:01:21;;;;;;;8.95;2.65;;;13.90;99.90;;;12.54;91.78;100902.34;3499740;40;102315;-44
2021/07/07 02:03:49;;;;;;;4.80;2.65;;;14.00;99.90;;;12.62;91.85;100910.25;3500277;40;102386;-41
2021/07/07 02:06:16;;;;;;;6.70;2.60;;;14.00;99.90;;;12.61;91.49;100909.44;3499969;40;103059;-42
2021/07/07 02:08:44;;;;;;;7.00;2.75;;;14.00;99.90;;;12.57;91.32;100904.63;3499919;40;102417;-43
2021/07/07 02:11:11;;;;;;;7.18;2.70;;;14.00;99.90;;;12.59;91.20;100902.50;3499877;40;102418;-41
2021/07/07 02:13:38;;;;;;;9.02;2.85;;;14.00;99.90;;;12.62;90.96;100910.25;3500659;40;103404;-43
2021/07/07 02:16:06;;;;;;;6.82;2.78;;;14.00;99.90;;;12.60;91.52;100904.19;3500014;40;102469;-43
2021/07/07 02:18:34;;;;;;;8.75;2.72;;;14.00;99.90;;;12.63;91.67;100901.84;3500272;40;102710;-41
2021/07/07 02:21:03;;;;;;;9.50;2.78;;;14.00;99.90;;;12.64;91.35;100903.53;3500258;40;102303;-41
2021/07/07 02:23:31;;;;;;;6.75;2.72;;;14.00;99.90;;;12.64;91.58;100900.78;3500571;40;103180;-42
2021/07/07 02:25:58;;;;;;;7.80;2.80;;;14.10;99.90;;;12.65;91.58;100902.47;3500168;40;102548;-41
2021/07/07 02:28:25;;;;;;;6.68;2.63;;;14.10;99.90;;;12.68;91.41;100897.59;3499128;40;102268;-41
2021/07/07 02:30:54;;;;;;;6.57;2.60;;;14.10;99.90;;;12.69;91.20;100896.53;3490696;40;105670;-42
2021/07/07 02:33:23;;;;;;;9.20;2.70;;;14.10;99.90;;;12.70;91.22;100896.28;3499753;40;103193;-41
2021/07/07 02:35:53;;;;;;;5.68;2.10;;;14.10;99.90;;;12.70;90.99;100896.28;3499572;40;104103;-41
2021/07/07 02:38:25;;;;;;;7.03;2.35;;;14.10;99.90;;;12.70;91.38;100890.81;3499597;40;102431;-41
2021/07/07 02:41:13;;;;;;;5.18;2.40;;;14.10;99.90;;;12.73;91.29;100892.28;3499102;40;102440;-41
2021/07/07 02:43:41;;;;;;;6.03;2.80;;;14.10;99.90;;;12.75;91.16;100901.94;3500030;40;102930;-41
2021/07/07 02:46:08;;;;;;;5.10;2.17;;;14.20;99.90;;;12.73;90.61;100893.13;3499576;40;104107;-41
2021/07/07 02:48:36;;;;;;;6.47;2.90;;;14.20;99.90;;;12.75;90.10;100907.41;3499656;40;102418;-41
2021/07/07 02:51:03;;;;;;;7.85;2.55;;;14.20;99.90;;;12.75;90.08;100901.94;3499860;40;104154;-41
2021/07/07 02:53:30;;;;;;;6.45;2.47;;;14.20;99.90;;;12.73;90.37;100905.97;3499592;40;102285;-41
2021/07/07 02:55:58;;;;;;;7.45;2.53;;;14.20;99.90;;;12.73;90.20;100903.22;3499431;40;102298;-43
2021/07/07 02:58:25;;;;;;;8.77;2.45;;;14.10;99.90;;;12.72;90.27;100901.53;3499229;40;102406;-42
2021/07/07 03:00:52;;;;;;;7.03;2.83;;;14.20;99.90;;;12.70;90.08;100907.22;3499941;40;103101;-42
2021/07/07 03:03:24;;;;;;;8.68;2.67;;;14.10;99.90;;;12.68;89.96;100912.09;3499567;40;102682;-41
2021/07/07 03:06:00;;;;;;;9.50;2.63;;;14.10;99.90;;;12.68;90.08;100908.53;3499445;40;102148;-41
2021/07/07 03:08:30;;;;;;;6.40;2.50;;;14.10;99.90;;;12.65;89.74;100915.28;3499537;40;102819;-41
2021/07/07 03:11:00;;;;;;;5.72;2.40;;;14.10;99.90;;;12.62;89.79;100905.66;3499656;40;103204;-41
2021/07/07 03:13:29;;;;;;;5.35;2.45;;;14.00;99.90;;;12.57;90.10;100908.19;3499534;40;102182;-41
2021/07/07 03:15:56;;;;;;;4.72;2.13;;;14.00;99.90;;;12.56;90.19;100914.72;3499751;40;103306;-42
2021/07/07 03:18:25;;;;;;;5.80;2.80;;;14.00;99.90;;;12.56;90.03;100922.13;3499938;40;102395;-42
2021/07/07 03:20:53;;;;;;;7.90;2.60;;;14.00;99.90;;;12.55;89.98;100923.19;3498863;40;102225;-41
2021/07/07 03:23:23;;;;;;;8.32;2.78;;;14.00;99.90;;;12.56;89.99;100922.94;3498897;40;102351;-41
2021/07/07 03:25:53;;;;;;;7.65;2.58;;;14.00;99.90;;;12.54;89.63;100927.78;3499377;40;102146;-41
2021/07/07 03:28:23;;;;;;;5.13;3.00;;;14.00;99.90;;;12.49;89.89;100923.00;3499443;40;103302;-41
2021/07/07 03:30:51;;;;;;;5.47;2.40;;;14.00;99.90;;;12.48;89.80;100931.44;3500557;40;102417;-41
2021/07/07 03:33:19;;;;;;;10.73;3.10;;;13.90;99.90;;;12.48;90.03;100939.63;3500781;40;103351;-41
2021/07/07 03:35:47;;;;;;;5.75;2.50;;;13.90;99.90;;;12.45;90.21;100943.66;3500486;40;103149;-41
2021/07/07 03:38:14;;;;;;;;;;;13.90;99.90;;;12.43;90.33;100942.22;3501303;40;102307;-41
2021/07/07 03:40:42;;;;;;;6.55;2.42;;;13.90;99.90;;;12.38;90.29;100945.59;3500991;40;103042;-41
2021/07/07 03:43:10;;;;;;;7.90;2.30;;;13.80;99.90;;;12.37;90.46;100943.94;3500763;40;103241;-44
2021/07/07 03:45:38;;;;;;;;;;;13.80;99.90;;;12.35;90.60;100946.06;3492011;40;103152;-41
2021/07/07 03:48:08;;;;;;;5.18;2.25;;;13.80;99.90;;;12.34;90.61;100949.84;3500764;40;102965;-41
2021/07/07 03:50:37;;;;;;;8.43;2.72;;;13.80;99.90;;;12.35;90.58;100952.38;3500287;40;103201;-41
2021/07/07 03:53:07;;;;;;;8.65;2.95;;;13.80;99.90;;;12.38;90.69;100956.53;3500533;40;102420;-41
2021/07/07 03:55:35;;;;;;;8.13;2.58;;;13.80;99.90;;;12.44;90.63;100972.06;3499823;40;102237;-41
2021/07/07 03:58:04;;;;;;;5.80;2.53;;;13.80;99.90;;;12.49;90.79;100964.06;3500625;40;102318;-43
2021/07/07 04:00:32;;;;;;;5.57;2.30;;;13.90;99.90;;;12.59;90.17;100974.50;3500336;40;102403;-42
2021/07/07 04:03:00;;;;;;;4.93;2.13;;;13.90;99.90;;;12.63;89.88;100967.53;3500382;40;102595;-41
2021/07/07 04:05:28;;;;;;;5.63;2.40;;;14.00;99.90;;;12.66;89.83;100980.78;3500439;40;102284;-41
2021/07/07 04:07:55;;;;;;;5.18;2.60;;;14.00;99.90;;;12.77;89.96;100981.94;3500643;40;102427;-45
2021/07/07 04:10:23;;;;;;;5.63;2.38;;;14.10;99.90;;;12.82;89.64;100977.69;3500469;40;103160;-40
2021/07/07 04:12:52;;;;;;;6.75;2.42;;;14.20;99.90;;;12.90;89.35;100982.88;3500582;40;103351;-42
2021/07/07 04:15:20;;;;;;;7.57;2.78;;;14.20;99.90;;;13.00;89.10;100985.97;3500547;40;104325;-41
2021/07/07 04:17:47;;;;;;;5.95;2.60;;;14.30;99.90;;;13.12;88.84;100986.03;3500943;40;102901;-42
2021/07/07 04:20:19;;;;;;;6.75;2.42;;;14.40;99.90;;;13.27;89.54;100995.81;3500018;40;103161;-43
2021/07/07 04:22:50;;;;;;;8.05;2.70;;;14.50;99.90;;;13.36;89.34;101000.78;3500641;40;102316;-41
2021/07/07 04:25:18;;;;;;;7.78;2.50;;;14.60;99.90;;;13.41;88.49;100999.25;3500154;40;102343;-41
2021/07/07 04:27:47;;;;;;;6.68;2.78;;;14.70;99.90;;;13.49;88.29;101004.47;3500378;40;102409;-41
2021/07/07 04:30:18;;;;;;;9.48;2.53;;;14.70;99.90;;;13.55;87.87;101002.72;3500302;40;104413;-41
2021/07/07 04:32:47;;;;;;;7.65;2.50;;;14.80;99.90;;;13.57;87.69;100995.94;3500383;40;102656;-41
2021/07/07 04:35:17;;;;;;;9.45;2.47;;;14.80;99.90;;;13.63;87.36;100997.78;3500426;40;102636;-41
2021/07/07 04:37:46;;;;;;;5.88;2.45;;;14.90;99.90;;;13.65;87.13;101003.84;3500260;40;102519;-41
2021/07/07 04:40:17;;;;;;;6.43;2.45;;;14.90;99.90;;;13.70;86.67;100999.59;3500038;40;102369;-42
2021/07/07 04:42:45;;;;;;;7.03;2.50;;;15.00;99.90;;;13.80;86.84;101010.88;3500402;40;103322;-41
2021/07/07 04:45:14;;;;;;;5.65;2.40;;;15.10;99.90;;;13.95;86.34;101008.56;3500045;40;103432;-43
2021/07/07 04:47:44;;;;;;;5.90;2.60;;;15.20;99.90;;;14.17;86.53;101004.47;3491404;40;102525;-41
2021/07/07 04:50:16;;;;;;;11.48;2.60;;;15.30;99.90;;;14.34;85.63;101004.69;3500129;40;102377;-41
2021/07/07 04:52:43;;;;;;;9.13;2.33;;;15.40;99.90;;;14.51;84.49;101005.66;3500490;40;103335;-43
2021/07/07 04:55:15;;;;;;;5.75;2.17;;;15.60;99.90;;;14.64;83.73;101012.88;3500366;40;102190;-41
2021/07/07 04:57:43;;;;;;;5.97;2.22;;;15.80;99.90;;;14.70;83.97;101005.59;3500407;40;102307;-41
2021/07/07 05:00:21;;;;;;;8.23;3.08;;;15.80;99.90;;;14.64;83.83;101009.28;3500032;40;102607;-41
2021/07/07 05:02:51;;;;;;;5.83;2.60;;;15.80;99.90;;;14.58;83.56;101011.06;3500184;40;102544;-41
2021/07/07 05:05:21;;;;;;;6.60;2.28;;;15.90;99.90;;;14.56;83.88;101015.09;3500314;40;103695;-41
2021/07/07 05:07:49;;;;;;;5.63;2.20;;;15.80;99.90;;;14.51;83.59;101015.81;3500682;40;102397;-42
2021/07/07 05:10:17;;;;;;;7.25;2.60;;;15.80;99.90;;;14.39;83.63;101005.63;3500079;40;103129;-41
2021/07/07 05:12:45;;;;;;;9.48;2.92;;;15.70;99.90;;;14.41;83.50;101010.91;3499992;40;102625;-42
2021/07/07 05:15:14;;;;;;;;;;;15.70;99.90;;;14.45;83.82;101016.75;3500731;40;102303;-41
2021/07/07 05:17:43;;;;;;;7.60;2.00;;;15.70;99.90;;;14.48;83.94;101017.13;3500875;40;102517;-42
2021/07/07 05:20:12;;;;;;;7.90;2.75;;;15.70;99.90;;;14.56;84.96;101013.22;3500267;40;103688;-41
2021/07/07 05:22:41;;;;;;;8.15;2.40;;;15.80;99.90;;;14.70;84.17;101013.84;3500117;40;102326;-41
2021/07/07 05:25:11;;;;;;;9.20;2.40;;;15.90;99.90;;;14.85;84.42;101018.91;3499799;40;104280;-42
2021/07/07 05:27:38;;;;;;;6.05;2.58;;;16.00;99.90;;;15.33;84.14;101022.50;3500262;40;102176;-41
2021/07/07 05:30:08;;;;;;;5.97;2.38;;;16.30;99.90;;;15.71;80.55;101020.31;3500581;40;103336;-41
2021/07/07 05:32:36;;;;;;;5.22;2.17;;;16.60;99.90;;;15.91;79.63;101017.22;3500224;40;102483;-41
2021/07/07 05:35:06;;;;;;;7.40;2.28;;;16.90;99.90;;;15.98;78.79;101018.97;3500050;40;102702;-41
2021/07/07 05:37:34;;;;;;;7.25;2.00;;;17.00;99.90;;;16.02;78.30;101017.41;3500451;40;102372;-42
2021/07/07 05:40:04;;;;;;;;;;;17.10;99.90;;;16.13;79.40;101023.94;3500697;40;103294;-41
2021/07/07 05:42:31;;;;;;;;;;;17.10;99.90;;;16.21;79.96;101020.81;3501156;40;102228;-42
2021/07/07 05:44:59;;;;;;;5.68;2.30;;;17.20;99.90;;;16.27;78.48;101021.75;3500300;40;103251;-42
2021/07/07 05:47:27;;;;;;;6.55;2.03;;;17.30;99.90;;;16.33;77.71;101027.09;3500351;40;102156;-41
2021/07/07 05:49:57;;;;;;;6.75;2.53;;;17.40;99.90;;;16.37;76.35;101025.53;3500527;40;102627;-41
2021/07/07 05:52:26;;;;;;;4.97;1.83;;;17.50;99.90;;;16.45;77.00;101031.72;3499749;40;103241;-42
2021/07/07 05:54:55;;;;;;;5.72;1.92;;;17.50;99.90;;;16.43;76.35;101034.69;3499614;40;102858;-43
2021/07/07 05:57:25;;;;;;;6.28;2.28;;;17.50;99.90;;;16.48;76.06;101029.31;3500353;40;102363;-41
2021/07/07 05:59:52;;;;;;;7.72;2.25;;;17.50;99.90;;;16.56;77.15;101036.31;3499893;40;102274;-41
2021/07/07 06:02:20;;;;;;;7.03;2.35;;;17.60;99.90;;;16.58;75.95;101038.81;3500007;40;102472;-41
2021/07/07 06:04:47;;;;;;;6.65;2.03;;;17.60;99.90;;;16.62;74.85;101040.84;3499970;40;104402;-41
2021/07/07 06:07:15;;;;;;;7.95;2.05;;;17.70;99.90;;;16.62;75.09;101043.59;3500404;40;102385;-42
2021/07/07 06:09:42;;;;;;;8.18;2.17;;;17.70;99.90;;;16.70;76.28;101038.75;3500284;40;104134;-42
2021/07/07 06:12:10;;;;;;;5.45;1.80;;;17.70;99.90;;;16.78;75.83;101049.38;3500256;40;102496;-42
2021/07/07 06:14:37;;;;;;;5.18;2.20;;;17.80;99.90;;;16.86;76.86;101042.63;3500031;40;103294;-41
2021/07/07 06:17:04;;;;;;;5.40;2.10;;;17.90;99.90;;;16.88;75.98;101044.06;3500408;40;103233;-41
2021/07/07 06:19:32;;;;;;;6.18;2.30;;;17.90;99.90;;;16.96;76.17;101045.53;3499868;40;102356;-41
2021/07/07 06:22:01;;;;;;;;;;;17.90;99.90;;;16.99;75.05;101047.84;3501039;40;102378;-42
2021/07/07 06:24:29;;;;;;;5.28;1.95;;;18.00;99.90;;;17.03;74.15;101043.50;3500026;40;102330;-41
2021/07/07 06:26:56;;;;;;;5.70;1.80;;;18.10;99.90;;;17.20;75.16;101056.41;3499758;40;102376;-42
2021/07/07 06:29:24;;;;;;;6.95;2.25;;;18.20;99.90;;;17.34;75.42;101073.47;3500018;40;104226;-43
2021/07/07 06:31:51;;;;;;;4.95;1.98;;;18.30;99.90;;;17.37;72.62;101070.19;3500188;40;103264;-41
2021/07/07 06:34:19;;;;;;;11.75;3.45;;;18.30;99.90;;;17.48;72.98;101071.19;3499719;40;102356;-41
2021/07/07 06:36:46;;;;;;;4.70;1.83;;;18.40;99.90;;;17.52;72.03;101072.38;3500099;40;102136;-43
2021/07/07 06:39:13;;;;;;;6.57;2.20;;;18.50;99.90;;;17.80;73.04;101070.56;3500228;40;102188;-42
2021/07/07 06:41:41;;;;;;;8.38;2.50;;;18.70;99.90;;;18.08;71.43;101068.72;3499982;40;103360;-42
2021/07/07 06:44:08;;;;;;;6.05;1.98;;;18.90;99.90;;;18.47;70.94;101071.38;3500012;40;104133;-42
2021/07/07 06:46:36;;;;;;;4.97;1.63;;;19.20;99.90;;;18.81;69.62;101076.69;3500148;40;102443;-41
2021/07/07 06:49:04;;;;;;;6.05;2.30;;;19.50;99.90;;;19.18;68.81;101069.56;3500083;40;103189;-42
2021/07/07 06:51:31;;;;;;;7.40;2.22;;;19.80;99.90;;;19.34;65.82;101064.16;3499555;40;102350;-41
2021/07/07 06:53:59;;;;;;;3.75;1.83;;;20.00;99.90;;;19.38;66.14;101085.50;3499785;40;104151;-42
2021/07/07 06:56:26;;;;;;;6.63;2.03;;;20.10;99.90;;;19.58;65.90;101072.88;3499743;40;102372;-42
2021/07/07 06:58:54;;;;;;;5.72;1.70;;;20.30;99.90;;;19.60;65.74;101081.75;3500335;40;103441;-41
2021/07/07 07:01:21;;;;;;;5.70;2.00;;;20.40;99.90;;;19.50;67.18;101095.50;3499841;40;103310;-42
2021/07/07 07:03:49;;;;;;;5.60;1.95;;;20.40;99.90;;;19.63;65.91;101096.97;3499581;40;103174;-41
2021/07/07 07:06:16;;;;;;;7.00;1.95;;;20.50;99.90;;;19.73;63.54;101090.69;3499974;40;102426;-41
2021/07/07 07:08:44;;;;;;;3.85;1.83;;;20.60;99.90;;;19.70;65.29;101092.03;3499895;40;102314;-41
2021/07/07 07:11:17;;;;;;;5.35;1.90;;;20.60;99.90;;;19.86;65.34;101100.44;3629126;22;105042;-41
2021/07/07 07:13:45;;;;;;;6.53;1.92;;;20.70;99.90;;;20.16;62.98;101094.25;3509332;40;103379;-41
2021/07/07 07:16:14;;;;;;;4.03;1.80;;;20.80;99.90;;;20.19;63.63;101092.88;3508837;40;103569;-43
2021/07/07 07:18:42;;;;;;;7.53;1.90;;;20.90;99.90;;;20.12;61.71;101109.72;3509459;40;103248;-40
2021/07/07 07:21:09;;;;;;;3.55;1.85;;;21.00;99.90;;;20.20;64.41;101102.84;3509325;40;102431;-42
2021/07/07 07:23:36;;;;;;;4.78;1.90;;;21.00;99.90;;;20.12;61.90;101096.72;3508995;40;103142;-40
2021/07/07 07:26:04;;;;;;;6.18;1.77;;;21.00;99.90;;;20.11;62.75;101108.91;3509042;40;102707;-40
2021/07/07 07:28:31;;;;;;;4.68;1.63;;;21.00;99.90;;;20.21;63.47;101105.34;3509317;40;103370;-41
2021/07/07 07:30:59;;;;;;;4.97;1.50;;;21.00;99.90;;;20.26;64.15;101110.91;3509391;40;102407;-42
2021/07/07 07:33:27;;;;;;;9.32;1.80;;;21.10;99.90;;;20.43;64.66;101118.19;3509259;40;102173;-40
2021/07/07 07:35:55;;;;;;;5.20;1.65;;;21.20;99.90;;;20.51;62.18;101111.25;3509058;40;103376;-41
2021/07/07 07:38:27;;;;;;;6.53;1.88;;;21.30;99.90;;;20.73;62.76;101113.81;3509002;40;102911;-40
2021/07/07 07:40:55;;;;;;;4.40;1.70;;;21.40;99.90;;;20.73;61.15;101118.50;3509356;40;102294;-42
2021/07/07 07:43:24;;;;;;;4.10;2.00;;;21.50;99.90;;;20.82;61.48;101117.72;3509050;40;102289;-40
2021/07/07 07:45:58;;;;;;;6.05;1.88;;;21.60;99.90;;;20.86;60.74;101114.41;3508644;40;103369;-41
2021/07/07 07:48:26;;;;;;;6.13;2.00;;;21.60;99.90;;;20.91;61.42;101129.13;3509331;40;103474;-40
2021/07/07 07:50:57;;;;;;;8.77;1.70;;;21.70;99.90;;;21.02;60.94;101120.78;3509506;40;102388;-40
2021/07/07 07:53:24;;;;;;;4.97;1.90;;;21.80;99.90;;;21.04;60.56;101116.66;3509144;40;104155;-40
2021/07/07 07:55:52;;;;;;;4.45;1.63;;;21.80;99.90;;;21.08;61.14;101112.22;3509122;40;102282;-41
2021/07/07 07:58:20;;;;;;;3.90;1.77;;;21.90;99.90;;;21.13;61.72;101125.25;3508903;40;102258;-41
2021/07/07 08:00:49;;;;;;;8.18;1.88;;;22.00;99.90;;;21.26;60.72;101118.31;3509113;40;102544;-42
2021/07/07 08:03:17;;;;;;;4.47;1.75;;;22.10;99.90;;;21.28;60.61;101124.44;3509248;40;102351;-40
2021/07/07 08:05:44;;;;;;;7.13;1.88;;;22.10;99.90;;;21.21;60.40;101121.06;3509233;40;102383;-40
2021/07/07 08:08:12;;;;;;;7.65;2.00;;;22.10;99.90;;;21.47;61.32;101129.38;3509232;40;103257;-41
2021/07/07 08:10:40;;;;;;;4.50;1.88;;;22.20;99.90;;;21.61;60.03;101121.31;3509064;40;102114;-40
2021/07/07 08:13:07;;;;;;;6.25;1.83;;;22.30;99.90;;;21.66;57.86;101129.69;3508985;40;102820;-40
2021/07/07 08:15:35;;;;;;;5.93;1.95;;;22.40;99.90;;;21.63;58.77;101124.69;3509633;40;102273;-40
2021/07/07 08:18:03;;;;;;;5.75;1.73;;;22.40;99.90;;;21.73;60.96;101127.47;3510415;40;102335;-40
2021/07/07 08:20:31;;;;;;;5.25;1.75;;;22.50;99.90;;;21.72;56.88;101123.03;3510783;40;102345;-40
2021/07/07 08:22:58;;;;;;;5.60;1.90;;;22.50;99.90;;;21.98;59.09;101128.50;3510244;40;102222;-41
2021/07/07 08:25:26;;;;;;;5.97;1.73;;;22.60;99.90;;;22.05;58.06;101126.25;3510307;40;102297;-40
2021/07/07 08:27:55;;;;;;;3.88;1.75;;;22.70;99.90;;;21.93;55.08;101134.09;3510333;40;103269;-41
2021/07/07 08:30:23;;;;;;;3.92;1.65;;;22.70;99.90;;;22.15;56.84;101130.94;3510322;40;102084;-40
2021/07/07 08:32:51;;;;;;;6.25;1.60;;;22.80;99.90;;;22.37;56.63;101121.41;3510066;40;103154;-42
2021/07/07 08:35:19;;;;;;;6.13;1.75;;;23.00;99.90;;;22.34;54.23;101127.53;3510353;40;104223;-40
2021/07/07 08:37:47;;;;;;;5.22;1.65;;;23.10;99.90;;;22.32;56.23;101122.25;3509641;40;103662;-40
2021/07/07 08:40:16;;;;;;;3.35;1.40;;;23.10;99.90;;;22.48;56.52;101123.03;3510369;40;102492;-40
2021/07/07 08:42:46;;;;;;;6.00;1.80;;;23.20;99.90;;;22.65;56.18;101113.50;3509838;40;102464;-41
2021/07/07 08:45:17;;;;;;;6.55;2.00;;;23.30;99.90;;;22.57;51.84;101120.50;3510032;40;102439;-40
2021/07/07 08:47:47;;;;;;;5.80;1.35;;;23.40;99.90;;;22.65;56.45;101121.84;3510867;40;103232;-42
2021/07/07 08:50:29;;;;;;;4.88;1.63;;;23.40;99.90;;;22.77;54.28;101119.53;3510204;40;102432;-40
2021/07/07 08:53:00;;;;;;;3.30;1.38;;;23.40;99.90;;;23.15;55.11;101126.50;3510266;40;103275;-40
2021/07/07 08:55:29;;;;;;;4.57;1.67;;;23.70;99.90;;;23.19;49.75;101116.44;3509720;40;102454;-41
2021/07/07 08:57:58;;;;;;;4.57;1.50;;;23.80;99.90;;;23.35;53.57;101122.75;3509193;40;102235;-40
2021/07/07 09:00:33;;;;;;;4.95;1.50;;;23.90;99.90;;;23.34;56.17;101124.72;3510064;40;102555;-41
2021/07/07 09:03:03;;;;;;;6.10;1.40;;;24.00;99.90;;;23.21;50.35;101122.56;3510094;40;102362;-40
2021/07/07 09:05:48;;;;;;;5.88;1.60;;;24.00;99.90;;;22.99;50.65;101127.47;3510047;40;102408;-41
2021/07/07 09:08:26;;;;;;;5.57;1.40;;;23.80;99.90;;;23.33;53.25;101125.81;3510016;40;102607;-40
2021/07/07 09:10:57;;;;;;;4.00;1.60;;;24.00;99.90;;;23.37;49.33;101123.28;3510085;40;102489;-40
2021/07/07 09:13:25;;;;;;;8.38;1.60;;;24.10;99.90;;;23.12;50.87;101131.53;3510199;40;102286;-40
2021/07/07 09:15:53;;;;;;;4.68;1.38;;;24.00;99.90;;;22.92;49.84;101126.13;3509143;40;102443;-40
2021/07/07 09:18:33;;;;;;;5.07;1.65;;;23.90;99.90;;;22.73;51.88;101131.53;3510277;40;102348;-40
2021/07/07 09:21:04;;;;;;;3.58;1.38;;;23.70;99.90;;;22.39;52.88;101122.75;3510027;40;102403;-40
2021/07/07 09:23:32;;;;;;;4.10;1.27;;;23.40;99.90;;;22.31;49.29;101133.66;3500750;40;105541;-40
2021/07/07 09:26:02;;;;;;;3.00;1.45;;;23.30;99.90;;;22.23;54.21;101138.69;3509919;40;102803;-40
2021/07/07 09:28:39;;;;;;;4.47;1.30;;;23.10;99.90;;;22.08;55.13;101136.78;3509845;40;102227;-40
2021/07/07 09:31:35;;;;;;;4.30;1.27;;;23.00;99.90;;;21.95;54.92;101142.97;3510219;40;102670;-40
2021/07/07 09:34:19;;;;;;;4.93;1.60;;;22.90;99.90;;;21.81;56.26;101143.53;3509837;40;103254;-43
2021/07/07 09:36:52;;;;;;;3.72;1.10;;;22.80;99.90;;;21.62;51.71;101140.50;3510298;40;102458;-41
2021/07/07 09:39:21;;;;;;;4.07;1.50;;;22.70;99.90;;;21.67;54.13;101140.50;3510453;40;102274;-40
2021/07/07 09:41:51;;;;;;;3.58;1.42;;;22.60;99.90;;;21.92;53.91;101140.75;3509816;40;102378;-40
2021/07/07 09:44:19;;;;;;;4.35;1.50;;;22.70;99.90;;;22.35;53.69;101140.31;3510240;40;102310;-41
2021/07/07 09:46:47;;;;;;;2.92;1.30;;;23.00;99.90;;;22.84;52.70;101139.53;3510279;40;102630;-41
2021/07/07 09:49:15;;;;;;;5.28;1.55;;;23.40;99.90;;;23.17;50.64;101144.56;3509830;40;103207;-40
2021/07/07 09:51:49;;;;;;;6.18;1.50;;;23.70;99.90;;;23.01;49.24;101146.63;3510091;40;102762;-40
2021/07/07 09:54:20;;;;;;;3.45;1.10;;;23.80;99.90;;;23.01;47.93;101143.84;3509947;40;102160;-40
2021/07/07 09:56:48;;;;;;;6.07;1.50;;;23.80;99.90;;;23.31;48.61;101144.75;3510144;40;102228;-41
2021/07/07 09:59:15;;;;;;;5.43;1.00;;;24.00;99.90;;;23.58;46.36;101146.19;3509680;40;102459;-40
2021/07/07 10:01:46;;;;;;;4.65;1.38;;;24.20;99.90;;;23.67;46.41;101151.94;3510059;40;102452;-42
2021/07/07 10:04:17;;;;;;;4.35;1.67;;;24.30;99.70;;;23.55;47.88;101155.97;3509830;40;103166;-40
2021/07/07 10:06:46;;;;;;;4.70;1.40;;;24.40;99.80;;;23.38;48.01;101161.97;3509799;40;102479;-41
2021/07/07 10:09:15;;;;;;;6.75;1.60;;;24.20;99.60;;;23.56;48.06;101159.56;3509563;40;104320;-40
2021/07/07 10:11:43;;;;;;;2.60;0.98;;;24.40;99.90;;;23.77;45.69;101157.44;3510239;40;102284;-41
2021/07/07 10:14:12;;;;;;;5.90;1.23;;;24.50;98.80;;;23.83;44.79;101152.63;3509348;40;102646;-40